Time;durP1;ratioP1;P1;durP2;ratioP2;P2;SDS_P1;SDS_P2;PMS_P1;PMS_P2;Temp;Humidity;BMP_temperature;BMP_pressure;BME280_temperature;BME280_humidity;BME280_pressure;Samples;Min_cycle;Max_cycle;Signal;HPM_P1;HPM_P2
2020/12/21 00:01:49;;;;;;;10.38;6.40;;;;;;;4.89;65.89;96231.75;5050058;28;20216;-66
2020/12/21 00:04:15;;;;;;;11.48;7.00;;;;;;;4.85;65.88;96235.72;5050067;28;20212;-61
2020/12/21 00:06:43;;;;;;;11.43;6.85;;;;;;;4.76;65.85;96216.84;5049907;28;20208;-66
2020/12/21 00:09:10;;;;;;;12.15;7.00;;;;;;;4.80;65.82;96223.28;5049826;28;20200;-64
2020/12/21 00:11:39;;;;;;;11.23;6.85;;;;;;;4.74;65.93;96221.44;5048792;28;20189;-63
2020/12/21 00:14:08;;;;;;;10.60;6.53;;;;;;;4.80;65.84;96225.88;5050025;28;20188;-64
2020/12/21 00:16:42;;;;;;;10.90;7.18;;;;;;;4.85;65.44;96225.31;5049729;28;20239;-64
2020/12/21 00:19:10;;;;;;;11.73;6.97;;;;;;;4.77;65.16;96226.25;5049069;28;20196;-63
2020/12/21 00:21:37;;;;;;;11.52;7.32;;;;;;;4.42;65.90;96219.34;5049299;28;20192;-62
2020/12/21 00:24:05;;;;;;;12.70;7.25;;;;;;;4.73;65.60;96232.81;5049257;28;20188;-67
2020/12/21 00:26:31;;;;;;;12.10;7.43;;;;;;;4.80;65.44;96238.84;5049923;28;20231;-67
2020/12/21 00:28:58;;;;;;;11.48;7.40;;;;;;;4.81;65.60;96240.47;5049056;28;20315;-61
2020/12/21 00:31:29;;;;;;;10.50;6.68;;;;;;;4.83;65.17;96233.31;5049494;28;20760;-64
2020/12/21 00:33:57;;;;;;;11.13;7.07;;;;;;;4.68;66.12;96245.56;5049612;28;20255;-63
2020/12/21 00:36:24;;;;;;;11.20;6.97;;;;;;;4.83;65.63;96238.50;5050161;28;20259;-64
2020/12/21 00:38:52;;;;;;;10.57;6.82;;;;;;;4.73;65.80;96225.00;5049021;28;20297;-67
2020/12/21 00:41:21;;;;;;;11.73;6.90;;;;;;;4.77;65.51;96239.25;5049558;28;20192;-63
2020/12/21 00:43:49;;;;;;;10.18;6.70;;;;;;;4.82;65.35;96246.47;5048736;28;20757;-63
2020/12/21 00:46:18;;;;;;;11.30;6.63;;;;;;;4.77;65.39;96239.25;5049488;28;20232;-62
2020/12/21 00:48:45;;;;;;;10.52;6.63;;;;;;;4.82;65.33;96239.47;5064200;28;20213;-61
2020/12/21 00:51:13;;;;;;;9.95;6.70;;;;;;;4.83;65.39;96238.50;5049409;28;20658;-65
2020/12/21 00:53:41;;;;;;;9.40;6.38;;;;;;;4.77;65.36;96236.66;5049206;28;20570;-66
2020/12/21 00:56:08;;;;;;;9.02;6.05;;;;;;;4.89;64.83;96237.72;5048135;28;20202;-64
2020/12/21 00:58:36;;;;;;;9.50;6.13;;;;;;;4.89;65.17;96242.94;5048843;28;20204;-64
2020/12/21 01:01:26;;;;;;;10.32;6.53;;;;;;;4.97;65.08;96250.59;5049346;28;20559;-65
2020/12/21 01:03:58;;;;;;;10.63;6.20;;;;;;;4.94;65.09;96240.59;5048806;28;20234;-63
2020/12/21 01:06:24;;;;;;;10.38;6.05;;;;;;;4.84;65.39;96241.88;5049030;28;20323;-62
2020/12/21 01:08:58;;;;;;;10.32;6.75;;;;;;;4.82;65.55;96234.28;5049422;28;20200;-64
2020/12/21 01:11:29;;;;;;;11.77;7.00;;;;;;;4.85;65.47;96239.09;5053463;28;20197;-63
2020/12/21 01:13:57;;;;;;;10.70;6.30;;;;;;;4.82;65.59;96244.66;5052470;28;20250;-64
2020/12/21 01:16:23;;;;;;;11.15;6.88;;;;;;;4.85;65.70;96248.69;5053536;28;20196;-63
2020/12/21 01:18:50;;;;;;;10.57;6.43;;;;;;;4.90;65.40;96244.56;5052268;28;21029;-65
2020/12/21 01:21:36;;;;;;;11.30;6.90;;;;;;;4.81;65.91;96245.69;5053171;28;20200;-65
2020/12/21 01:24:04;;;;;;;9.68;6.32;;;;;;;4.87;65.78;96239.72;5052893;28;20220;-66
2020/12/21 01:26:30;;;;;;;11.40;6.65;;;;;;;4.92;65.92;96239.97;5053057;28;20563;-62
2020/12/21 01:28:57;;;;;;;10.10;6.65;;;;;;;4.87;65.98;96239.72;5051838;28;20215;-66
2020/12/21 01:31:24;;;;;;;11.82;6.78;;;;;;;4.96;65.89;96238.59;5053360;28;20254;-64
2020/12/21 01:34:03;;;;;;;10.82;7.15;;;;;;;4.96;65.73;96245.59;5052253;28;20314;-64
2020/12/21 01:36:30;;;;;;;11.07;7.13;;;;;;;4.94;65.94;96240.59;5052781;28;21489;-66
2020/12/21 01:38:56;;;;;;;10.50;7.07;;;;;;;4.94;65.82;96234.59;5051932;28;20629;-64
2020/12/21 01:41:23;;;;;;;10.40;7.05;;;;;;;4.79;65.95;96226.88;5052449;28;20232;-67
2020/12/21 01:43:55;;;;;;;11.38;6.93;;;;;;;4.85;65.83;96231.31;5052664;28;20316;-63
2020/12/21 01:46:21;;;;;;;11.55;7.03;;;;;;;4.81;65.92;96232.69;5052324;28;20228;-63
2020/12/21 01:48:48;;;;;;;10.68;6.97;;;;;;;4.80;65.76;96236.25;5052062;28;20982;-64
2020/12/21 01:51:28;;;;;;;10.70;6.88;;;;;;;4.85;65.54;96230.53;5052494;28;20189;-64
2020/12/21 01:53:55;;;;;;;11.70;7.22;;;;;;;4.86;65.75;96238.13;5052228;28;20203;-63
2020/12/21 01:56:23;;;;;;;11.23;6.55;;;;;;;4.90;65.28;96230.75;5052544;28;20232;-63
2020/12/21 01:58:50;;;;;;;10.90;6.72;;;;;;;4.94;65.39;96235.41;5051950;28;20196;-64
2020/12/21 02:01:18;;;;;;;12.13;6.75;;;;;;;4.96;65.30;96232.63;5052004;28;20275;-65
2020/12/21 02:03:46;;;;;;;13.70;6.90;;;;;;;4.90;65.32;96228.97;5051696;28;20230;-68
2020/12/21 02:06:12;;;;;;;11.15;6.95;;;;;;;4.92;64.86;96224.41;5052334;28;20212;-66
2020/12/21 02:08:40;;;;;;;13.20;7.75;;;;;;;4.95;65.43;96231.78;5051636;28;20200;-65
2020/12/21 02:11:06;;;;;;;13.05;7.10;;;;;;;4.99;65.30;96229.63;5052307;28;20196;-63
2020/12/21 02:13:33;;;;;;;12.38;7.80;;;;;;;4.99;65.16;96232.22;5051743;28;20623;-64
2020/12/21 02:16:01;;;;;;;11.27;7.22;;;;;;;4.99;65.28;96227.84;5052271;28;20196;-67
2020/12/21 02:18:28;;;;;;;13.07;7.18;;;;;;;5.01;65.35;96231.06;5051671;28;20214;-65
2020/12/21 02:20:54;;;;;;;12.45;7.30;;;;;;;5.00;65.26;96229.44;5051206;28;20196;-66
2020/12/21 02:23:21;;;;;;;10.27;6.93;;;;;;;4.94;65.28;96219.00;5051659;28;20205;-70
2020/12/21 02:25:47;;;;;;;12.75;8.00;;;;;;;4.99;65.24;96225.25;5051901;28;20219;-68
2020/12/21 02:28:13;;;;;;;12.52;7.60;;;;;;;5.01;65.01;96223.25;5053474;28;20201;-65
2020/12/21 02:30:41;;;;;;;13.52;8.10;;;;;;;4.97;65.30;96210.81;5051307;28;20895;-65
2020/12/21 02:33:07;;;;;;;12.65;7.75;;;;;;;5.08;65.10;96216.31;5051278;28;20224;-65
2020/12/21 02:35:35;;;;;;;12.57;7.43;;;;;;;5.13;65.17;96208.75;5051319;28;20319;-66
2020/12/21 02:38:07;;;;;;;13.98;8.30;;;;;;;5.13;65.05;96211.34;5051461;28;20220;-63
2020/12/21 02:40:39;;;;;;;14.23;8.10;;;;;;;5.17;65.02;96214.38;5051068;28;20248;-65
2020/12/21 02:43:21;;;;;;;14.68;7.93;;;;;;;5.07;65.02;96209.50;5051689;28;20756;-63
2020/12/21 02:45:48;;;;;;;14.05;7.88;;;;;;;5.14;64.82;96207.78;5050897;28;20307;-64
2020/12/21 02:48:15;;;;;;;13.60;7.75;;;;;;;5.03;64.92;96223.88;5051345;28;20204;-64
2020/12/21 02:50:42;;;;;;;13.40;7.78;;;;;;;4.98;65.22;96221.03;5049288;28;20945;-65
2020/12/21 02:53:16;;;;;;;15.50;8.05;;;;;;;5.06;65.16;96217.47;5051261;28;20700;-64
2020/12/21 02:55:46;;;;;;;15.77;8.35;;;;;;;5.10;65.23;96210.94;5050779;28;21010;-66
2020/12/21 02:58:13;;;;;;;14.55;8.55;;;;;;;5.08;65.11;96211.13;5050726;28;20208;-67
2020/12/21 03:00:41;;;;;;;12.65;8.32;;;;;;;5.05;65.46;96221.88;5050654;28;20200;-63
2020/12/21 03:03:10;;;;;;;13.88;7.90;;;;;;;4.87;65.39;96195.56;5050745;28;20189;-67
2020/12/21 03:05:37;;;;;;;12.57;8.18;;;;;;;5.11;65.02;96215.94;5050520;28;20353;-64
2020/12/21 03:08:05;;;;;;;12.75;7.85;;;;;;;4.77;65.44;96213.28;5051268;28;20208;-66
2020/12/21 03:10:33;;;;;;;13.63;7.82;;;;;;;4.98;65.37;96221.03;5050560;28;20639;-62
2020/12/21 03:12:59;;;;;;;12.45;7.38;;;;;;;5.03;65.58;96217.88;5050688;28;20249;-67
2020/12/21 03:15:26;;;;;;;14.10;8.10;;;;;;;4.99;65.63;96220.06;5050428;28;20203;-65
2020/12/21 03:17:53;;;;;;;12.60;7.60;;;;;;;5.06;65.50;96226.09;5051287;28;20231;-67
2020/12/21 03:20:19;;;;;;;13.70;8.13;;;;;;;5.10;65.36;96229.13;5050166;28;20208;-63
2020/12/21 03:22:49;;;;;;;15.77;8.10;;;;;;;5.07;65.31;96229.50;5050862;28;20195;-62
2020/12/21 03:25:17;;;;;;;15.07;8.07;;;;;;;5.11;65.51;96233.31;5050281;28;20216;-61
2020/12/21 03:27:44;;;;;;;15.93;8.25;;;;;;;5.08;65.32;96226.72;5050480;28;20262;-65
2020/12/21 03:30:11;;;;;;;14.27;8.40;;;;;;;5.10;65.18;96235.13;5050473;28;20283;-63
2020/12/21 03:32:37;;;;;;;14.55;8.98;;;;;;;5.01;65.46;96231.06;5050336;28;20291;-66
2020/12/21 03:35:05;;;;;;;15.02;8.98;;;;;;;5.10;65.47;96216.13;5049848;28;20374;-67
2020/12/21 03:37:33;;;;;;;16.70;9.48;;;;;;;5.01;65.54;96204.28;5049954;28;20208;-64
2020/12/21 03:40:00;;;;;;;14.68;9.13;;;;;;;5.01;65.90;96215.47;5050120;28;20298;-63
2020/12/21 03:42:28;;;;;;;17.17;9.48;;;;;;;5.04;65.64;96209.88;5050885;28;20189;-64
2020/12/21 03:44:54;;;;;;;16.05;10.07;;;;;;;4.77;66.53;96209.88;5049476;28;20297;-62
2020/12/21 03:47:21;;;;;;;15.35;9.05;;;;;;;4.85;66.50;96210.53;5050407;28;20281;-62
2020/12/21 03:49:47;;;;;;;16.20;9.55;;;;;;;4.93;66.28;96215.59;5049922;28;20196;-66
2020/12/21 03:52:14;;;;;;;19.10;10.13;;;;;;;4.98;66.22;96215.03;5050164;28;20196;-64
2020/12/21 03:54:41;;;;;;;18.80;10.82;;;;;;;4.85;66.19;96210.53;5049529;28;20223;-64
2020/12/21 03:57:07;;;;;;;19.38;10.68;;;;;;;5.00;66.18;96213.84;5049974;28;20282;-64
2020/12/21 03:59:34;;;;;;;20.20;10.93;;;;;;;4.91;66.53;96209.78;5049952;28;20196;-65
2020/12/21 04:02:00;;;;;;;17.35;10.40;;;;;;;4.99;66.16;96212.25;5050001;28;20577;-64
2020/12/21 04:04:26;;;;;;;18.30;10.18;;;;;;;5.03;66.38;96208.28;5049513;28;20210;-63
2020/12/21 04:06:53;;;;;;;17.52;10.68;;;;;;;4.94;66.35;96209.44;5049324;28;20285;-62
2020/12/21 04:09:19;;;;;;;22.55;12.60;;;;;;;5.02;66.33;96217.06;5049497;28;20204;-67
2020/12/21 04:11:46;;;;;;;22.20;13.02;;;;;;;5.00;66.43;96197.44;5049472;28;20212;-64
2020/12/21 04:14:12;;;;;;;23.08;13.32;;;;;;;5.14;66.04;96220.78;5050111;28;20210;-65
2020/12/21 04:16:39;;;;;;;22.15;12.55;;;;;;;5.09;66.22;96217.13;5049778;28;20212;-66
2020/12/21 04:19:05;;;;;;;22.65;12.20;;;;;;;5.02;66.39;96222.25;5048743;28;20204;-64
2020/12/21 04:21:32;;;;;;;25.33;13.45;;;;;;;4.89;66.59;96209.16;5053022;28;20283;-65
2020/12/21 04:23:58;;;;;;;25.15;12.07;;;;;;;4.86;66.84;96203.53;5049633;28;20618;-65
2020/12/21 04:26:25;;;;;;;27.67;13.38;;;;;;;4.75;67.46;96210.06;5048985;28;20220;-62
2020/12/21 04:28:51;;;;;;;26.38;13.25;;;;;;;4.89;67.24;96206.56;5049636;28;20208;-63
2020/12/21 04:31:18;;;;;;;28.40;13.00;;;;;;;4.96;66.95;96206.63;5049662;28;20196;-66
2020/12/21 04:33:44;;;;;;;26.55;13.05;;;;;;;4.96;67.04;96207.41;5048871;28;20914;-63
2020/12/21 04:36:12;;;;;;;20.52;11.55;;;;;;;5.13;66.63;96203.56;5049220;28;20200;-66
2020/12/21 04:38:40;;;;;;;26.13;13.25;;;;;;;5.05;66.77;96211.47;5048740;28;20791;-65
2020/12/21 04:41:08;;;;;;;24.40;13.15;;;;;;;5.07;66.83;96204.31;5047975;28;20200;-65
2020/12/21 04:43:35;;;;;;;24.70;12.05;;;;;;;4.96;67.02;96202.22;5048534;28;20212;-65
2020/12/21 04:46:06;;;;;;;29.98;12.93;;;;;;;4.98;66.83;96210.63;5049093;28;20224;-66
2020/12/21 04:48:38;;;;;;;30.75;15.07;;;;;;;4.87;67.48;96218.94;5048596;28;20207;-64
2020/12/21 04:51:06;;;;;;;31.55;14.80;;;;;;;4.87;67.43;96211.16;5049438;28;20192;-66
2020/12/21 04:53:33;;;;;;;32.00;14.90;;;;;;;4.88;67.52;96210.16;5048456;28;20207;-63
2020/12/21 04:56:00;;;;;;;27.33;13.30;;;;;;;4.75;67.51;96210.06;5049370;28;20245;-67
2020/12/21 04:58:27;;;;;;;25.00;13.38;;;;;;;4.85;67.55;96200.13;5048808;28;20203;-67
2020/12/21 05:00:53;;;;;;;19.23;11.10;;;;;;;4.78;67.33;96199.28;5048356;28;20207;-63
2020/12/21 05:03:20;;;;;;;21.05;11.60;;;;;;;4.81;67.73;96214.50;5048761;28;20196;-65
2020/12/21 05:05:46;;;;;;;23.90;11.82;;;;;;;4.84;67.66;96208.94;5047803;28;20220;-65
2020/12/21 05:08:23;;;;;;;18.13;10.50;;;;;;;4.83;67.14;96202.16;5045668;28;20617;-62
2020/12/21 05:11:04;;;;;;;17.90;10.48;;;;;;;4.89;67.54;96216.97;5047908;28;20192;-62
2020/12/21 05:13:33;;;;;;;19.33;10.90;;;;;;;4.82;67.69;96218.69;5047466;28;20607;-66
2020/12/21 05:16:00;;;;;;;19.90;11.30;;;;;;;4.89;67.40;96219.56;5027075;28;20197;-63
2020/12/21 05:18:31;;;;;;;23.30;11.25;;;;;;;4.85;67.55;96220.91;5028643;28;20192;-63
2020/12/21 05:21:02;;;;;;;20.15;11.10;;;;;;;4.89;67.50;96229.94;5029424;28;20209;-67
2020/12/21 05:23:30;;;;;;;19.88;11.13;;;;;;;4.93;67.78;96227.78;5028018;28;20288;-65
2020/12/21 05:26:07;;;;;;;19.85;10.48;;;;;;;4.90;67.57;96223.78;5028874;28;20221;-66
2020/12/21 05:28:36;;;;;;;17.50;10.18;;;;;;;4.87;67.49;96223.34;5028243;28;20231;-64
2020/12/21 05:31:06;;;;;;;18.63;10.80;;;;;;;4.90;67.62;96228.16;5028686;28;20205;-66
2020/12/21 05:33:33;;;;;;;18.13;10.25;;;;;;;4.85;67.60;96223.50;5027574;28;20247;-67
2020/12/21 05:36:09;;;;;;;21.58;12.07;;;;;;;4.94;67.66;96219.81;5028992;28;20611;-63
2020/12/21 05:38:36;;;;;;;21.85;12.25;;;;;;;4.93;67.62;96220.78;5028325;28;20553;-67
2020/12/21 05:41:17;;;;;;;19.77;10.82;;;;;;;4.94;67.57;96219.81;5028313;28;20595;-69
2020/12/21 05:43:45;;;;;;;18.35;10.10;;;;;;;5.10;67.63;96224.72;5028224;28;20212;-63
2020/12/21 05:46:14;;;;;;;17.42;10.50;;;;;;;5.22;68.59;96219.00;5028655;28;20784;-66
2020/12/21 05:48:56;;;;;;;20.88;10.63;;;;;;;5.28;67.32;96220.84;5031164;28;20247;-62
2020/12/21 05:51:26;;;;;;;16.48;9.85;;;;;;;5.24;66.77;96235.22;5027851;28;20189;-66
2020/12/21 05:53:58;;;;;;;16.95;10.15;;;;;;;5.25;66.40;96231.63;5041094;28;20207;-67
2020/12/21 05:56:27;;;;;;;19.20;10.82;;;;;;;5.14;66.47;96225.16;5048325;28;20267;-64
2020/12/21 05:58:54;;;;;;;19.00;11.25;;;;;;;5.18;66.15;96215.19;5048427;28;20199;-66
2020/12/21 06:01:21;;;;;;;20.95;11.98;;;;;;;5.24;66.17;96230.03;5052307;28;20189;-66
2020/12/21 06:03:53;;;;;;;18.83;11.48;;;;;;;5.22;66.34;96232.00;5065300;28;20982;-64
2020/12/21 06:06:24;;;;;;;21.33;12.10;;;;;;;5.24;66.69;96227.44;5050372;28;20787;-65
2020/12/21 06:08:59;;;;;;;18.60;10.63;;;;;;;5.26;66.47;96234.03;5051326;28;20592;-69
2020/12/21 06:11:30;;;;;;;21.00;11.48;;;;;;;5.24;66.58;96230.03;5051282;28;20227;-70
2020/12/21 06:14:00;;;;;;;21.02;12.38;;;;;;;4.94;67.09;96235.41;5050974;28;20673;-67
2020/12/21 06:16:35;;;;;;;26.48;12.85;;;;;;;4.88;67.50;96237.94;5051095;28;20209;-64
2020/12/21 06:19:10;;;;;;;28.90;17.83;;;;;;;4.94;68.09;96235.41;5050853;28;20266;-69
2020/12/21 06:21:57;;;;;;;21.85;11.90;;;;;;;5.01;67.54;96231.06;5051157;28;20196;-64
2020/12/21 06:24:24;;;;;;;23.42;12.25;;;;;;;5.01;67.70;96228.47;5051002;28;20205;-66
2020/12/21 06:26:52;;;;;;;23.67;12.85;;;;;;;5.14;67.26;96225.97;5051318;28;20216;-64
2020/12/21 06:29:20;;;;;;;23.63;12.82;;;;;;;5.13;67.45;96234.72;5050310;28;20236;-66
2020/12/21 06:31:48;;;;;;;25.42;13.68;;;;;;;5.01;67.02;96197.28;5051128;28;20188;-64
2020/12/21 06:34:37;;;;;;;24.58;13.65;;;;;;;5.30;66.49;96230.06;5050269;28;20319;-68
2020/12/21 06:37:19;;;;;;;25.17;13.82;;;;;;;5.38;66.86;96227.31;5050634;28;20212;-65
2020/12/21 06:40:00;;;;;;;22.73;13.88;;;;;;;5.34;66.49;96235.69;5050629;28;20266;-67
2020/12/21 06:42:28;;;;;;;20.98;12.93;;;;;;;5.18;66.47;96201.19;5051203;28;20192;-64
2020/12/21 06:44:57;;;;;;;23.77;14.13;;;;;;;5.34;66.44;96233.06;5050231;28;20247;-64
2020/12/21 06:47:25;;;;;;;27.52;13.90;;;;;;;5.30;66.61;96234.44;5050915;28;20200;-66
2020/12/21 06:49:52;;;;;;;23.48;13.73;;;;;;;5.40;66.66;96232.31;5050186;28;20208;-64
2020/12/21 06:52:19;;;;;;;27.02;13.95;;;;;;;5.35;66.95;96237.25;5050680;28;20204;-62
2020/12/21 06:54:49;;;;;;;28.67;14.80;;;;;;;5.43;66.59;96229.34;5050122;28;20688;-65
2020/12/21 06:57:16;;;;;;;25.50;15.38;;;;;;;5.38;66.82;96226.50;5050466;28;20212;-66
2020/12/21 06:59:42;;;;;;;25.20;14.98;;;;;;;5.33;66.61;96234.88;5049839;28;20263;-65
2020/12/21 07:02:09;;;;;;;25.02;14.45;;;;;;;5.43;66.15;96234.53;5050757;28;20220;-63
2020/12/21 07:04:35;;;;;;;24.48;15.07;;;;;;;5.38;65.87;96244.69;5050184;28;20208;-65
2020/12/21 07:07:06;;;;;;;27.23;15.75;;;;;;;5.38;65.98;96242.09;5049719;28;20642;-66
2020/12/21 07:09:34;;;;;;;29.30;15.80;;;;;;;5.31;66.25;96242.03;5050038;28;20201;-65
2020/12/21 07:12:06;;;;;;;26.95;15.70;;;;;;;5.21;66.34;96243.38;5050282;28;20208;-66
2020/12/21 07:14:39;;;;;;;30.85;16.88;;;;;;;5.37;66.40;96241.28;5049342;28;20204;-66
2020/12/21 07:17:15;;;;;;;32.38;18.42;;;;;;;5.48;66.52;96237.34;5050104;28;20736;-64
2020/12/21 07:19:43;;;;;;;37.10;19.23;;;;;;;5.42;66.27;96238.13;5049429;28;20200;-63
2020/12/21 07:22:11;;;;;;;35.97;19.52;;;;;;;5.51;66.46;96237.00;5050496;28;20184;-63
2020/12/21 07:24:39;;;;;;;35.72;20.17;;;;;;;5.56;66.39;96245.00;5055702;28;20200;-67
2020/12/21 07:27:06;;;;;;;39.35;20.13;;;;;;;5.42;66.21;96227.75;5049076;28;20228;-62
2020/12/21 07:29:39;;;;;;;41.28;20.42;;;;;;;5.47;66.53;96241.78;5049033;28;20188;-65
2020/12/21 07:32:07;;;;;;;43.10;20.23;;;;;;;5.58;66.28;96253.44;5050044;28;20205;-68
2020/12/21 07:34:35;;;;;;;39.75;21.80;;;;;;;5.54;66.46;96247.81;5049072;28;20609;-70
2020/12/21 07:37:11;;;;;;;41.35;21.67;;;;;;;5.59;66.71;96255.03;5049581;28;20207;-71
2020/12/21 07:39:38;;;;;;;35.65;20.40;;;;;;;5.63;66.39;96249.25;5049447;28;20208;-62
2020/12/21 07:42:14;;;;;;;34.70;19.20;;;;;;;5.64;66.45;96252.69;5049474;28;20565;-70
2020/12/21 07:44:49;;;;;;;33.28;19.88;;;;;;;5.70;66.13;96251.88;5049367;28;20265;-65
2020/12/21 07:47:24;;;;;;;36.45;20.00;;;;;;;5.57;65.94;96251.81;5050384;28;20327;-69
2020/12/21 07:49:51;;;;;;;36.45;19.73;;;;;;;5.56;66.14;96250.22;5049626;28;20253;-67
2020/12/21 07:52:18;;;;;;;37.50;19.20;;;;;;;5.59;66.05;96252.41;5049337;28;20612;-65
2020/12/21 07:54:45;;;;;;;42.47;24.13;;;;;;;5.54;65.86;96247.00;5048654;28;20231;-67
2020/12/21 07:57:13;;;;;;;63.30;34.83;;;;;;;5.64;66.30;96244.88;5049583;28;20192;-65
2020/12/21 07:59:41;;;;;;;34.60;19.05;;;;;;;5.66;66.17;96250.66;5049005;28;20207;-65
2020/12/21 08:02:09;;;;;;;29.55;18.10;;;;;;;5.68;66.11;96251.28;5049101;28;20235;-70
2020/12/21 08:04:36;;;;;;;34.22;18.52;;;;;;;5.75;65.96;96241.69;5049423;28;20678;-66
2020/12/21 08:07:10;;;;;;;33.35;17.63;;;;;;;5.83;65.75;96254.59;5051997;28;20725;-65
2020/12/21 08:09:38;;;;;;;31.83;18.27;;;;;;;5.78;65.63;96247.34;5049046;28;20206;-66
2020/12/21 08:12:16;;;;;;;29.20;16.58;;;;;;;5.74;65.46;96238.31;5049038;28;20219;-67
2020/12/21 08:14:44;;;;;;;27.42;16.65;;;;;;;5.77;65.14;96252.72;5048810;28;20610;-69
2020/12/21 08:17:15;;;;;;;25.20;14.88;;;;;;;5.73;65.08;96256.72;5049140;28;20572;-65
2020/12/21 08:19:56;;;;;;;25.25;13.07;;;;;;;5.74;64.69;96253.13;5048148;28;20265;-66
2020/12/21 08:22:24;;;;;;;26.42;12.98;;;;;;;5.79;64.96;96254.16;5049321;28;20254;-73
2020/12/21 08:25:09;;;;;;;21.33;13.27;;;;;;;5.82;64.65;96260.78;5048574;28;20183;-70
2020/12/21 08:27:38;;;;;;;24.67;13.85;;;;;;;5.72;64.97;96244.69;5049018;28;20699;-65
2020/12/21 08:30:15;;;;;;;24.60;13.10;;;;;;;5.85;64.72;96255.22;5048649;28;20223;-66
2020/12/21 08:32:42;;;;;;;27.27;15.23;;;;;;;5.88;64.72;96247.00;5048744;28;20192;-70
2020/12/21 08:35:09;;;;;;;29.15;14.93;;;;;;;5.83;64.63;96241.59;5048559;28;20193;-70
2020/12/21 08:37:37;;;;;;;25.90;15.15;;;;;;;5.88;64.69;96241.81;5048685;28;20200;-68
2020/12/21 08:40:15;;;;;;;23.92;13.25;;;;;;;5.91;64.83;96251.84;5048683;28;20193;-66
2020/12/21 08:42:49;;;;;;;30.80;15.88;;;;;;;5.99;63.95;96249.06;5048347;28;20185;-65
2020/12/21 08:45:20;;;;;;;83.32;48.15;;;;;;;5.98;64.16;96240.47;5048899;28;20258;-65
2020/12/21 08:47:48;;;;;;;43.22;22.75;;;;;;;5.96;63.89;96226.84;5049218;28;20199;-70
2020/12/21 08:50:14;;;;;;;25.45;14.68;;;;;;;6.14;64.30;96236.72;5048908;28;20195;-70
2020/12/21 08:52:41;;;;;;;29.55;15.30;;;;;;;6.12;64.11;96233.50;5049259;28;20215;-64
2020/12/21 08:55:07;;;;;;;26.65;14.85;;;;;;;6.07;64.00;96233.28;5048961;28;20200;-68
2020/12/21 08:57:34;;;;;;;26.63;14.52;;;;;;;6.06;64.16;96234.28;5049178;28;20188;-69
2020/12/21 09:00:02;;;;;;;27.63;13.57;;;;;;;6.09;64.07;96231.31;5050010;28;20196;-64
2020/12/21 09:02:29;;;;;;;26.90;14.48;;;;;;;6.13;64.28;96230.69;5061613;28;20287;-62
2020/12/21 09:04:56;;;;;;;33.20;20.30;;;;;;;6.15;63.99;96233.09;5050081;28;20235;-66
2020/12/21 09:07:34;;;;;;;35.40;20.92;;;;;;;6.12;63.80;96230.91;5051087;28;20211;-74
2020/12/21 09:10:01;;;;;;;26.45;13.77;;;;;;;5.95;64.47;96227.03;5049715;28;20207;-71
2020/12/21 09:12:29;;;;;;;26.48;13.05;;;;;;;6.06;65.61;96229.06;5048977;28;20204;-64
2020/12/21 09:14:55;;;;;;;22.17;12.65;;;;;;;6.19;64.48;96210.91;5048332;28;20185;-68
2020/12/21 09:17:22;;;;;;;124.60;84.38;;;;;;;6.29;64.58;96219.16;5048197;28;20216;-62
2020/12/21 09:19:48;;;;;;;24.48;13.85;;;;;;;6.31;63.97;96224.97;5049599;28;20196;-70
2020/12/21 09:22:14;;;;;;;18.60;11.65;;;;;;;6.32;63.51;96210.94;5049312;28;20188;-69
2020/12/21 09:24:42;;;;;;;27.98;12.07;;;;;;;6.25;63.63;96217.94;5049247;28;20671;-63
2020/12/21 09:27:08;;;;;;;17.95;10.20;;;;;;;6.32;63.57;96221.34;5051813;28;20220;-69
2020/12/21 09:29:35;;;;;;;17.75;10.23;;;;;;;6.29;62.97;96224.34;5050142;28;20283;-64
2020/12/21 09:32:01;;;;;;;18.42;11.35;;;;;;;6.31;62.90;96214.56;5052287;28;20690;-72
2020/12/21 09:34:29;;;;;;;19.80;11.88;;;;;;;6.32;62.52;96210.94;5051940;28;20745;-74
2020/12/21 09:36:55;;;;;;;20.60;12.48;;;;;;;6.31;62.50;96201.53;5052613;28;20197;-72
2020/12/21 09:39:23;;;;;;;20.08;13.02;;;;;;;6.23;61.15;96206.91;5052381;28;20295;-72
2020/12/21 09:41:54;;;;;;;21.55;12.75;;;;;;;6.08;61.78;96198.44;5052643;28;20326;-66
2020/12/21 09:44:21;;;;;;;20.80;12.93;;;;;;;6.31;61.59;96193.72;5052144;28;20667;-68
2020/12/21 09:46:50;;;;;;;21.13;13.45;;;;;;;6.15;62.27;96209.69;5052173;28;20217;-61
2020/12/21 09:49:17;;;;;;;21.33;13.05;;;;;;;6.15;62.68;96199.28;5051963;28;20191;-67
2020/12/21 09:51:49;;;;;;;18.48;11.38;;;;;;;6.28;62.29;96188.91;5051877;28;20197;-71
2020/12/21 09:54:15;;;;;;;16.38;10.02;;;;;;;6.31;62.40;96188.53;5051403;28;20196;-70
2020/12/21 09:56:49;;;;;;;16.15;9.30;;;;;;;6.20;67.53;96185.69;5051556;28;20410;-63
2020/12/21 09:59:18;;;;;;;15.07;9.68;;;;;;;6.27;66.45;96187.31;5052551;28;20264;-65
2020/12/21 10:01:44;;;;;;;18.58;9.98;;;;;;;6.41;66.29;96188.94;5052346;28;20196;-68
2020/12/21 10:04:10;;;;;;;15.63;10.50;;;;;;;6.36;65.00;96191.34;5051314;28;20201;-64
2020/12/21 10:06:37;;;;;;;16.52;10.02;;;;;;;6.36;64.82;96183.53;5051697;28;20282;-68
2020/12/21 10:09:04;;;;;;;15.38;9.07;;;;;;;6.44;63.33;96183.31;5050416;28;20216;-64
2020/12/21 10:11:31;;;;;;;19.65;11.10;;;;;;;6.34;62.78;96175.09;5050175;28;20196;-63
2020/12/21 10:13:57;;;;;;;18.45;12.00;;;;;;;6.39;62.63;96185.72;5049922;28;20196;-68
2020/12/21 10:16:23;;;;;;;20.08;12.02;;;;;;;6.21;61.78;96182.88;5051560;28;20201;-62
2020/12/21 10:18:51;;;;;;;28.85;18.67;;;;;;;6.23;61.82;96183.50;5050658;28;20666;-69
2020/12/21 10:21:17;;;;;;;18.95;12.43;;;;;;;6.30;61.79;96176.50;5050480;28;20197;-70
2020/12/21 10:23:44;;;;;;;21.88;13.90;;;;;;;6.36;63.29;96183.53;5049463;28;20192;-66
2020/12/21 10:26:10;;;;;;;18.45;12.20;;;;;;;6.40;62.48;96171.72;5049696;28;20302;-66
2020/12/21 10:28:37;;;;;;;17.80;11.32;;;;;;;6.27;63.43;96169.09;5049259;28;20200;-68
2020/12/21 10:31:04;;;;;;;18.08;11.77;;;;;;;6.45;63.41;96166.72;5049644;28;20185;-66
2020/12/21 10:33:31;;;;;;;23.42;12.85;;;;;;;6.47;61.88;96159.50;5048805;28;20256;-67
2020/12/21 10:35:57;;;;;;;22.15;13.02;;;;;;;6.47;61.56;96167.31;5049566;28;20192;-64
2020/12/21 10:38:24;;;;;;;21.10;13.15;;;;;;;6.39;61.49;96154.47;5049799;28;20196;-66
2020/12/21 10:40:51;;;;;;;23.98;13.57;;;;;;;6.43;61.50;96165.28;5060225;28;20279;-65
2020/12/21 10:43:18;;;;;;;24.42;14.82;;;;;;;6.29;61.67;96153.25;5047996;28;20197;-64
2020/12/21 10:45:44;;;;;;;27.15;15.32;;;;;;;6.44;61.46;96154.69;5049772;28;20212;-68
2020/12/21 10:48:11;;;;;;;25.70;15.80;;;;;;;6.40;61.86;96148.28;5049618;28;20200;-70
2020/12/21 10:50:38;;;;;;;27.48;16.75;;;;;;;6.31;61.59;96148.66;5046684;28;20647;-67
2020/12/21 10:53:04;;;;;;;27.30;16.23;;;;;;;6.34;61.39;96141.25;5049644;28;20214;-63
2020/12/21 10:55:31;;;;;;;28.08;14.80;;;;;;;6.33;61.37;96139.66;5049357;28;20246;-68
2020/12/21 10:57:57;;;;;;;24.08;14.48;;;;;;;6.26;61.25;96138.84;5049532;28;20200;-66
2020/12/21 11:00:24;;;;;;;22.67;14.65;;;;;;;6.23;61.42;96139.25;5049001;28;20264;-67
2020/12/21 11:02:51;;;;;;;23.50;14.20;;;;;;;6.24;61.62;96140.06;5050132;28;20245;-69
2020/12/21 11:05:18;;;;;;;26.70;14.88;;;;;;;6.19;61.60;96148.44;5049339;28;20650;-66
2020/12/21 11:07:44;;;;;;;28.95;15.48;;;;;;;6.28;61.61;96152.47;5047978;28;20200;-67
2020/12/21 11:10:28;;;;;;;23.15;14.75;;;;;;;6.27;61.29;96144.84;5048497;28;20276;-64
2020/12/21 11:12:54;;;;;;;30.00;16.40;;;;;;;6.31;61.75;96151.28;5048823;28;20311;-69
2020/12/21 11:15:21;;;;;;;28.73;17.00;;;;;;;6.26;61.36;96144.03;5048791;28;20659;-63
2020/12/21 11:17:48;;;;;;;26.52;16.65;;;;;;;6.24;61.27;96146.03;5049560;28;20737;-64
2020/12/21 11:20:14;;;;;;;23.92;16.30;;;;;;;6.35;61.53;96148.06;5049734;28;20196;-68
2020/12/21 11:22:43;;;;;;;29.42;16.80;;;;;;;6.40;61.29;96150.88;5048947;28;20197;-71
2020/12/21 11:25:11;;;;;;;29.63;17.23;;;;;;;6.39;61.65;96149.28;5045963;28;20579;-64
2020/12/21 11:27:38;;;;;;;26.63;16.42;;;;;;;6.40;61.45;96148.28;5048477;28;20219;-69
2020/12/21 11:30:06;;;;;;;79.82;54.30;;;;;;;6.31;61.49;96146.88;5049953;28;20207;-64
2020/12/21 11:32:32;;;;;;;25.83;16.98;;;;;;;6.39;61.42;96157.09;5050213;28;20262;-61
2020/12/21 11:34:59;;;;;;;30.00;18.38;;;;;;;6.38;61.85;96150.28;5049560;28;20873;-66
2020/12/21 11:37:25;;;;;;;30.98;18.27;;;;;;;6.46;61.44;96149.28;5049877;28;20192;-66